createdAt,value
2022-12-03T00:00:46.542Z,1.10
2022-12-03T00:03:20.810Z,1.00
2022-12-03T00:06:05.271Z,1.00
2022-12-03T00:08:35.342Z,1.10
2022-12-03T00:11:02.686Z,1.10
2022-12-03T00:13:29.496Z,1.00
2022-12-03T00:15:56.390Z,1.00
2022-12-03T00:18:23.237Z,1.00
2022-12-03T00:20:50.050Z,1.00
2022-12-03T00:23:16.809Z,1.00
2022-12-03T00:25:43.622Z,1.00
2022-12-03T00:28:10.458Z,1.00
2022-12-03T00:30:37.258Z,1.00
2022-12-03T00:33:04.504Z,1.00
2022-12-03T00:35:31.317Z,1.10
2022-12-03T00:37:58.065Z,1.00
2022-12-03T00:40:24.840Z,1.10
2022-12-03T00:42:51.588Z,1.10
2022-12-03T00:45:18.442Z,1.10
2022-12-03T00:47:45.202Z,1.00
2022-12-03T00:50:12.384Z,1.10
2022-12-03T00:52:39.165Z,1.00
2022-12-03T00:55:06.664Z,1.00
2022-12-03T00:57:33.443Z,1.10
2022-12-03T01:00:00.185Z,1.10
2022-12-03T01:02:27.022Z,1.10
2022-12-03T01:04:54.064Z,1.10
2022-12-03T01:07:21.124Z,1.10
2022-12-03T01:09:47.966Z,1.10
2022-12-03T01:12:14.795Z,1.00
2022-12-03T01:14:41.572Z,1.00
2022-12-03T01:17:08.331Z,1.10
2022-12-03T01:19:35.861Z,1.10
2022-12-03T01:22:02.716Z,1.10
2022-12-03T01:24:29.842Z,1.10
2022-12-03T01:26:57.617Z,1.00
2022-12-03T01:29:24.779Z,1.10
2022-12-03T01:32:10.117Z,1.10
2022-12-03T01:34:36.905Z,1.10
2022-12-03T01:37:03.859Z,1.10
2022-12-03T01:39:30.744Z,1.10
2022-12-03T01:41:58.879Z,1.10
2022-12-03T01:44:34.602Z,1.10
2022-12-03T01:47:07.141Z,1.10
2022-12-03T01:49:41.955Z,1.10
2022-12-03T01:52:14.136Z,1.10
2022-12-03T01:54:45.970Z,1.10
2022-12-03T01:57:24.636Z,1.10
2022-12-03T01:59:52.518Z,1.10
2022-12-03T02:02:27.136Z,1.20
2022-12-03T02:04:54.836Z,1.20
2022-12-03T02:07:28.490Z,1.10
2022-12-03T02:09:57.863Z,1.20
2022-12-03T02:12:31.472Z,1.20
2022-12-03T02:14:59.234Z,1.10
2022-12-03T02:17:27.827Z,1.20
2022-12-03T02:19:55.971Z,1.20
2022-12-03T02:22:25.818Z,1.20
2022-12-03T02:24:58.767Z,1.20
2022-12-03T02:27:27.122Z,1.20
2022-12-03T02:29:54.101Z,1.20
2022-12-03T02:32:23.507Z,1.20
2022-12-03T02:34:51.055Z,1.10
2022-12-03T02:37:23.930Z,1.20
2022-12-03T02:39:54.172Z,1.10
2022-12-03T02:42:36.534Z,1.20
2022-12-03T02:45:22.228Z,1.10
2022-12-03T02:47:59.352Z,1.20
2022-12-03T02:50:39.542Z,1.10
2022-12-03T02:53:09.969Z,1.10
2022-12-03T02:55:37.710Z,1.20
2022-12-03T02:58:05.513Z,1.20
2022-12-03T03:00:33.184Z,1.20
2022-12-03T03:03:01.510Z,1.20
2022-12-03T03:05:28.794Z,1.20
2022-12-03T03:07:58.330Z,1.20
2022-12-03T03:10:26.221Z,1.20
2022-12-03T03:12:54.889Z,1.20
2022-12-03T03:15:23.261Z,1.20
2022-12-03T03:17:50.671Z,1.20
2022-12-03T03:20:18.668Z,1.10
2022-12-03T03:22:45.453Z,1.20
2022-12-03T03:25:18.750Z,1.20
2022-12-03T03:27:46.106Z,1.20
2022-12-03T03:30:14.287Z,1.20
2022-12-03T03:32:42.595Z,1.20
2022-12-03T03:35:10.789Z,1.20
2022-12-03T03:37:38.261Z,1.20
2022-12-03T03:40:05.934Z,1.20
2022-12-03T03:42:32.942Z,1.30
2022-12-03T03:45:00.023Z,1.20
2022-12-03T03:47:27.024Z,1.30
2022-12-03T03:49:54.464Z,1.30
2022-12-03T03:52:21.462Z,1.30
2022-12-03T03:54:48.440Z,1.30
2022-12-03T03:57:15.856Z,1.20
2022-12-03T03:59:42.837Z,1.20
2022-12-03T04:02:24.638Z,1.20
2022-12-03T04:04:52.641Z,1.20
2022-12-03T04:07:19.867Z,1.20
2022-12-03T04:09:46.658Z,1.10
2022-12-03T04:12:31.940Z,1.10
2022-12-03T04:14:58.844Z,1.10
2022-12-03T04:17:25.796Z,1.10
2022-12-03T04:19:52.596Z,1.10
2022-12-03T04:22:37.790Z,1.10
2022-12-03T04:25:24.099Z,1.10
2022-12-03T04:28:09.306Z,1.10
2022-12-03T04:30:36.150Z,1.20
2022-12-03T04:33:21.805Z,1.20
2022-12-03T04:35:48.831Z,1.10
2022-12-03T04:38:16.627Z,1.20
2022-12-03T04:41:01.340Z,1.10
2022-12-03T04:43:28.824Z,1.10
2022-12-03T04:45:55.699Z,1.10
2022-12-03T04:48:22.553Z,1.20
2022-12-03T04:50:49.377Z,1.20
2022-12-03T04:53:16.275Z,1.10
2022-12-03T04:55:43.092Z,1.10
2022-12-03T04:58:10.427Z,1.20
2022-12-03T05:00:37.345Z,1.20
2022-12-03T05:03:04.269Z,1.10
2022-12-03T05:05:31.129Z,1.10
2022-12-03T05:07:57.978Z,1.10
2022-12-03T05:10:24.857Z,1.20
2022-12-03T05:12:51.726Z,1.20
2022-12-03T05:15:18.543Z,1.20
2022-12-03T05:17:45.343Z,1.20
2022-12-03T05:20:31.096Z,1.10
2022-12-03T05:22:57.919Z,1.20
2022-12-03T05:25:24.731Z,1.20
2022-12-03T05:27:51.544Z,1.20
2022-12-03T05:30:18.415Z,1.20
2022-12-03T05:32:45.204Z,1.20
2022-12-03T05:35:12.175Z,1.10
2022-12-03T05:37:38.979Z,1.20
2022-12-03T05:40:06.680Z,1.20
2022-12-03T05:42:52.036Z,1.20
2022-12-03T05:45:19.336Z,1.10
2022-12-03T05:47:46.217Z,1.10
2022-12-03T05:50:13.086Z,1.10
2022-12-03T05:52:42.859Z,1.20
2022-12-03T05:55:11.800Z,1.20
2022-12-03T05:57:38.891Z,1.20
2022-12-03T06:00:09.321Z,1.20
2022-12-03T06:02:36.244Z,1.30
2022-12-03T06:05:03.343Z,1.20
2022-12-03T06:07:30.218Z,1.20
2022-12-03T06:09:57.056Z,1.20
2022-12-03T06:12:23.866Z,1.20
2022-12-03T06:14:50.861Z,1.20
2022-12-03T06:17:17.768Z,1.20
2022-12-03T06:19:44.607Z,1.20
2022-12-03T06:22:11.424Z,1.20
2022-12-03T06:24:38.354Z,1.20
2022-12-03T06:27:07.046Z,1.20
2022-12-03T06:29:33.880Z,1.20
2022-12-03T06:32:00.705Z,1.30
2022-12-03T06:34:27.488Z,1.30
2022-12-03T06:36:54.342Z,1.20
2022-12-03T06:39:21.432Z,1.20
2022-12-03T06:41:48.291Z,1.30
2022-12-03T06:44:15.199Z,1.30
2022-12-03T06:46:42.051Z,1.30
2022-12-03T06:49:09.273Z,1.30
2022-12-03T06:51:36.583Z,1.40
2022-12-03T06:54:04.647Z,1.40
2022-12-03T06:56:36.758Z,1.40
2022-12-03T06:59:05.992Z,1.40
2022-12-03T07:01:32.939Z,1.30
2022-12-03T07:03:59.740Z,1.30
2022-12-03T07:06:26.611Z,1.40
2022-12-03T07:08:53.425Z,1.30
2022-12-03T07:11:34.849Z,1.30
2022-12-03T07:14:05.551Z,1.40
2022-12-03T07:16:47.466Z,1.40
2022-12-03T07:19:14.968Z,1.40
2022-12-03T07:21:42.068Z,1.50
2022-12-03T07:24:09.128Z,1.40
2022-12-03T07:26:36.091Z,1.40
2022-12-03T07:29:02.943Z,1.40
2022-12-03T07:31:29.918Z,1.50
2022-12-03T07:33:56.858Z,1.50
2022-12-03T07:36:23.695Z,1.50
2022-12-03T07:38:50.529Z,1.50
2022-12-03T07:41:17.483Z,1.50
2022-12-03T07:43:45.256Z,1.50
2022-12-03T07:46:12.631Z,1.60
2022-12-03T07:48:40.601Z,1.60
2022-12-03T07:51:08.217Z,1.60
2022-12-03T07:53:36.480Z,1.60
2022-12-03T07:56:04.875Z,1.70
2022-12-03T07:58:31.751Z,1.70
2022-12-03T08:00:58.769Z,1.70
2022-12-03T08:03:25.684Z,1.70
2022-12-03T08:05:52.666Z,1.70
2022-12-03T08:08:19.547Z,1.70
2022-12-03T08:10:46.441Z,1.80
2022-12-03T08:13:15.610Z,1.80
2022-12-03T08:15:42.706Z,1.80
2022-12-03T08:18:15.969Z,2.10
2022-12-03T08:20:44.565Z,1.80
2022-12-03T08:23:17.910Z,1.90
2022-12-03T08:25:45.708Z,1.90
2022-12-03T08:28:12.657Z,2.00
2022-12-03T08:30:40.351Z,2.00
2022-12-03T08:33:20.314Z,2.00
2022-12-03T08:35:50.959Z,2.00
2022-12-03T08:38:21.045Z,2.10
2022-12-03T08:40:51.077Z,2.10
2022-12-03T08:43:25.013Z,2.10
2022-12-03T08:45:57.102Z,2.20
2022-12-03T08:48:41.787Z,2.20
2022-12-03T08:51:23.959Z,2.30
2022-12-03T08:53:59.683Z,2.30
2022-12-03T08:56:30.243Z,2.30
2022-12-03T08:59:27.722Z,2.30
2022-12-03T09:01:55.180Z,2.40
2022-12-03T09:04:22.007Z,2.40
2022-12-03T09:06:49.498Z,2.40
2022-12-03T09:09:16.725Z,2.50
2022-12-03T09:11:44.313Z,2.60
2022-12-03T09:14:18.282Z,2.60
2022-12-03T09:16:50.632Z,2.70
2022-12-03T09:19:17.535Z,2.80
2022-12-03T09:21:48.646Z,2.80
2022-12-03T09:24:15.505Z,2.80
2022-12-03T09:26:42.415Z,2.80
2022-12-03T09:29:12.459Z,2.80
2022-12-03T09:31:40.421Z,2.80
2022-12-03T09:34:07.866Z,2.90
2022-12-03T09:36:34.746Z,2.90
2022-12-03T09:39:01.578Z,2.90
2022-12-03T09:41:28.661Z,2.90
2022-12-03T09:44:05.189Z,2.90
2022-12-03T09:46:34.966Z,2.90
2022-12-03T09:49:02.852Z,2.90
2022-12-03T09:51:33.784Z,2.90
2022-12-03T09:54:06.502Z,2.90
2022-12-03T09:56:37.042Z,2.90
2022-12-03T09:59:12.652Z,3.00
2022-12-03T10:01:39.496Z,3.00
2022-12-03T10:04:06.987Z,3.00
2022-12-03T10:06:33.958Z,3.00
2022-12-03T10:09:01.619Z,3.00
2022-12-03T10:11:29.959Z,3.00
2022-12-03T10:13:58.537Z,3.00
2022-12-03T10:16:26.421Z,3.00
2022-12-03T10:18:55.969Z,3.00
2022-12-03T10:21:39.359Z,3.00
2022-12-03T10:24:25.768Z,3.00
2022-12-03T10:26:54.925Z,3.00
2022-12-03T10:29:34.101Z,3.00
2022-12-03T10:32:06.297Z,3.00
2022-12-03T10:34:35.480Z,3.00
2022-12-03T10:37:14.421Z,3.10
2022-12-03T10:39:55.996Z,3.00
2022-12-03T10:42:24.875Z,3.10
2022-12-03T10:45:09.711Z,3.20
2022-12-03T10:47:36.883Z,3.20
2022-12-03T10:50:07.107Z,3.10
2022-12-03T10:52:33.945Z,3.20
2022-12-03T10:55:00.769Z,3.30
2022-12-03T10:57:27.572Z,3.20
2022-12-03T10:59:54.432Z,3.30
2022-12-03T11:02:30.522Z,3.20
2022-12-03T11:04:59.123Z,3.30
2022-12-03T11:07:26.337Z,3.30
2022-12-03T11:09:58.839Z,3.40
2022-12-03T11:12:29.126Z,3.40
2022-12-03T11:14:56.824Z,3.40
2022-12-03T11:17:47.553Z,3.40
2022-12-03T11:20:46.450Z,3.40
2022-12-03T11:23:13.273Z,3.40
2022-12-03T11:25:50.462Z,3.30
2022-12-03T11:28:17.364Z,3.30
2022-12-03T11:30:56.882Z,3.30
2022-12-03T11:33:25.299Z,3.30
2022-12-03T11:36:04.458Z,3.30
2022-12-03T11:38:37.399Z,3.20
2022-12-03T11:41:16.220Z,3.20
2022-12-03T11:43:52.412Z,3.10
2022-12-03T11:46:25.341Z,3.10
2022-12-03T11:48:54.319Z,3.10
2022-12-03T11:51:23.414Z,3.10
2022-12-03T11:53:52.470Z,3.00
2022-12-03T11:56:30.569Z,3.00
2022-12-03T11:59:02.826Z,3.00
2022-12-03T12:01:39.064Z,2.90
2022-12-03T12:04:07.760Z,3.00
2022-12-03T12:06:42.832Z,2.90
2022-12-03T12:09:10.496Z,3.00
2022-12-03T12:11:41.350Z,2.90
2022-12-03T12:14:13.020Z,2.90
2022-12-03T12:16:52.798Z,2.90
2022-12-03T12:19:39.944Z,2.90
2022-12-03T12:22:20.500Z,2.90
2022-12-03T12:24:51.632Z,3.00
2022-12-03T12:27:21.058Z,3.00
2022-12-03T12:29:54.299Z,2.90
2022-12-03T12:32:29.574Z,3.00
2022-12-03T12:35:20.507Z,2.90
2022-12-03T12:37:59.055Z,2.90
2022-12-03T12:40:32.353Z,3.00
2022-12-03T12:43:12.621Z,2.90
2022-12-03T12:45:42.896Z,2.90
2022-12-03T12:48:26.422Z,2.90
2022-12-03T12:51:15.235Z,2.90
2022-12-03T12:53:49.669Z,2.80
2022-12-03T12:56:19.556Z,2.80
2022-12-03T12:58:46.386Z,2.80
2022-12-03T13:01:22.187Z,2.80
2022-12-03T13:03:51.854Z,2.70
2022-12-03T13:06:21.313Z,2.70
2022-12-03T13:08:49.798Z,2.70
2022-12-03T13:11:41.468Z,2.70
2022-12-03T13:14:31.935Z,2.80
2022-12-03T13:17:01.439Z,2.70
2022-12-03T13:19:30.496Z,2.70
2022-12-03T13:22:02.120Z,2.70
2022-12-03T13:24:35.905Z,2.70
2022-12-03T13:27:05.699Z,2.60
2022-12-03T13:29:32.546Z,2.60
2022-12-03T13:32:02.606Z,2.60
2022-12-03T13:34:33.609Z,2.60
2022-12-03T13:37:01.875Z,2.60
2022-12-03T13:39:32.490Z,2.50
2022-12-03T13:42:26.711Z,2.50
2022-12-03T13:44:54.329Z,2.50
2022-12-03T13:47:22.875Z,2.60
2022-12-03T13:49:55.353Z,2.50
2022-12-03T13:52:25.109Z,2.50
2022-12-03T13:54:56.651Z,2.50
2022-12-03T13:57:23.599Z,2.50
2022-12-03T13:59:50.494Z,2.50
2022-12-03T14:02:17.413Z,2.50
2022-12-03T14:04:44.261Z,2.50
2022-12-03T14:07:11.190Z,2.70
2022-12-03T14:09:37.973Z,2.50
2022-12-03T14:12:23.208Z,2.50
2022-12-03T14:14:49.970Z,2.50
2022-12-03T14:17:17.022Z,2.50
2022-12-03T14:19:43.970Z,2.40
2022-12-03T14:22:11.521Z,2.40
2022-12-03T14:24:42.717Z,2.40
2022-12-03T14:27:09.532Z,2.40
2022-12-03T14:29:36.479Z,2.40
2022-12-03T14:32:03.348Z,2.40
2022-12-03T14:34:30.320Z,2.40
2022-12-03T14:36:57.503Z,2.40
2022-12-03T14:39:24.274Z,2.30
2022-12-03T14:42:09.556Z,2.30
2022-12-03T14:44:36.395Z,2.30
2022-12-03T14:47:03.595Z,2.30
2022-12-03T14:49:30.587Z,2.30
2022-12-03T14:51:57.860Z,2.30
2022-12-03T14:54:24.773Z,2.30
2022-12-03T14:56:51.685Z,2.20
2022-12-03T14:59:22.991Z,2.20
2022-12-03T15:01:53.351Z,2.10
2022-12-03T15:04:20.384Z,2.10
2022-12-03T15:06:47.292Z,2.10
2022-12-03T15:09:14.159Z,2.10
2022-12-03T15:11:45.923Z,2.10
2022-12-03T15:14:13.388Z,2.10
2022-12-03T15:16:40.300Z,2.10
2022-12-03T15:19:07.243Z,2.00
2022-12-03T15:21:35.059Z,2.10
2022-12-03T15:24:02.597Z,2.00
2022-12-03T15:26:30.032Z,2.10
2022-12-03T15:28:57.788Z,2.10
2022-12-03T15:31:24.872Z,2.10
2022-12-03T15:33:51.762Z,2.00
2022-12-03T15:36:18.646Z,2.00
2022-12-03T15:38:45.533Z,2.00
2022-12-03T15:41:21.745Z,2.00
2022-12-03T15:43:49.041Z,2.00
2022-12-03T15:46:16.219Z,2.00
2022-12-03T15:48:43.098Z,2.00
2022-12-03T15:51:10.319Z,2.00
2022-12-03T15:53:37.211Z,2.00
2022-12-03T15:56:04.307Z,1.90
2022-12-03T15:58:31.250Z,1.90
2022-12-03T16:00:59.411Z,2.00
2022-12-03T16:03:26.400Z,1.90
2022-12-03T16:05:53.258Z,1.90
2022-12-03T16:08:20.136Z,1.90
2022-12-03T16:10:47.024Z,1.90
2022-12-03T16:13:13.860Z,1.90
2022-12-03T16:15:40.799Z,1.90
2022-12-03T16:18:07.758Z,2.00
2022-12-03T16:20:34.596Z,1.90
2022-12-03T16:23:01.661Z,1.90
2022-12-03T16:25:39.524Z,2.00
2022-12-03T16:28:06.736Z,1.90
2022-12-03T16:30:33.678Z,1.90
2022-12-03T16:33:00.570Z,1.90
2022-12-03T16:35:27.543Z,1.90
2022-12-03T16:37:54.421Z,1.90
2022-12-03T16:40:21.462Z,1.90
2022-12-03T16:42:48.354Z,1.90
2022-12-03T16:45:34.622Z,1.90
2022-12-03T16:48:02.391Z,1.80
2022-12-03T16:50:30.441Z,1.80
2022-12-03T16:52:58.044Z,1.80
2022-12-03T16:55:25.369Z,1.80
2022-12-03T16:57:52.237Z,1.90
2022-12-03T17:00:21.803Z,1.90
2022-12-03T17:02:48.831Z,1.90
2022-12-03T17:05:15.786Z,1.80
2022-12-03T17:07:42.715Z,1.80
2022-12-03T17:10:10.136Z,1.80
2022-12-03T17:13:01.201Z,1.80
2022-12-03T17:15:23.801Z,1.80
2022-12-03T17:17:50.633Z,1.80
2022-12-03T17:20:18.089Z,1.80
2022-12-03T17:22:45.039Z,1.80
2022-12-03T17:25:12.576Z,1.80
2022-12-03T17:27:45.116Z,1.80
2022-12-03T17:30:13.330Z,1.80
2022-12-03T17:32:41.443Z,1.80
2022-12-03T17:35:09.305Z,1.80
2022-12-03T17:37:37.040Z,1.80
2022-12-03T17:40:08.421Z,1.80
2022-12-03T17:42:35.430Z,1.80
2022-12-03T17:45:02.394Z,1.80
2022-12-03T17:47:29.375Z,1.80
2022-12-03T17:49:56.768Z,1.80
2022-12-03T17:52:24.136Z,1.80
2022-12-03T17:57:38.065Z,1.80
2022-12-03T18:00:06.199Z,1.80
2022-12-03T18:02:33.201Z,1.80
2022-12-03T18:05:00.122Z,1.80
2022-12-03T18:07:27.074Z,1.80
2022-12-03T18:09:54.212Z,1.80
2022-12-03T18:12:21.335Z,1.70
2022-12-03T18:14:48.200Z,1.80
2022-12-03T18:17:15.175Z,1.80
2022-12-03T18:19:42.136Z,1.70
2022-12-03T18:22:13.339Z,1.70
2022-12-03T18:24:40.906Z,1.70
2022-12-03T18:27:08.397Z,1.70
2022-12-03T18:29:35.448Z,1.60
2022-12-03T18:32:02.553Z,1.60
2022-12-03T18:34:29.397Z,1.70
2022-12-03T18:36:56.260Z,1.60
2022-12-03T18:39:31.539Z,1.70
2022-12-03T18:41:58.382Z,1.70
2022-12-03T18:44:26.113Z,1.70
2022-12-03T18:46:54.536Z,1.70
2022-12-03T18:49:22.271Z,1.70
2022-12-03T18:51:53.301Z,1.70
2022-12-03T18:54:24.371Z,1.60
2022-12-03T18:56:51.231Z,1.60
2022-12-03T18:59:18.004Z,1.70
2022-12-03T19:01:45.281Z,1.70
2022-12-03T19:04:12.405Z,1.70
2022-12-03T19:06:39.336Z,1.70
2022-12-03T19:09:06.293Z,1.70
2022-12-03T19:11:34.100Z,1.70
2022-12-03T19:14:02.907Z,1.70
2022-12-03T19:16:29.920Z,1.70
2022-12-03T19:18:57.289Z,1.70
2022-12-03T19:21:25.196Z,1.70
2022-12-03T19:24:22.664Z,1.70
2022-12-03T19:26:40.211Z,1.70
2022-12-03T19:29:07.037Z,1.70
2022-12-03T19:31:33.932Z,1.70
2022-12-03T19:34:00.770Z,1.80
2022-12-03T19:36:30.055Z,1.80
2022-12-03T19:38:59.010Z,1.80
2022-12-03T19:41:28.103Z,1.80
2022-12-03T19:43:56.238Z,1.80
2022-12-03T19:46:25.496Z,1.80
2022-12-03T19:48:53.630Z,1.80
2022-12-03T19:51:34.301Z,1.80
2022-12-03T19:54:06.723Z,1.80
2022-12-03T19:56:34.357Z,1.80
2022-12-03T19:59:01.142Z,1.80
2022-12-03T20:01:30.833Z,1.80
2022-12-03T20:03:59.938Z,1.90
2022-12-03T20:06:32.692Z,1.80
2022-12-03T20:09:06.941Z,1.90
2022-12-03T20:11:34.954Z,1.90
2022-12-03T20:14:07.243Z,1.90
2022-12-03T20:16:34.907Z,1.80
2022-12-03T20:19:05.092Z,1.80
2022-12-03T20:21:34.390Z,1.90
2022-12-03T20:24:01.470Z,1.80
2022-12-03T20:26:29.375Z,1.80
2022-12-03T20:28:57.007Z,1.80
2022-12-03T20:31:26.593Z,1.80
2022-12-03T20:33:56.470Z,1.80
2022-12-03T20:36:24.156Z,1.80
2022-12-03T20:39:00.483Z,1.80
2022-12-03T20:41:28.085Z,1.80
2022-12-03T20:43:55.265Z,1.80
2022-12-03T20:46:25.818Z,1.80
2022-12-03T20:48:56.445Z,1.80
2022-12-03T20:51:26.670Z,1.80
2022-12-03T20:53:54.019Z,1.80
2022-12-03T20:56:23.847Z,1.80
2022-12-03T20:58:51.184Z,1.80
2022-12-03T21:01:21.186Z,1.80
2022-12-03T21:03:49.521Z,1.80
2022-12-03T21:06:17.533Z,1.80
2022-12-03T21:08:45.239Z,1.90
2022-12-03T21:11:14.846Z,1.80
2022-12-03T21:13:43.807Z,1.90
2022-12-03T21:16:13.809Z,1.90
2022-12-03T21:18:41.641Z,1.90
2022-12-03T21:21:10.721Z,1.90
2022-12-03T21:23:37.888Z,1.90
2022-12-03T21:26:10.636Z,1.90
2022-12-03T21:28:43.377Z,1.90
2022-12-03T21:31:19.352Z,1.90
2022-12-03T21:33:46.722Z,1.90
2022-12-03T21:36:16.106Z,1.90
2022-12-03T21:38:44.549Z,1.80
2022-12-03T21:41:12.466Z,1.90
2022-12-03T21:43:39.347Z,1.90
2022-12-03T21:47:09.616Z,1.90
2022-12-03T21:49:00.052Z,1.90
2022-12-03T21:51:26.988Z,2.00
2022-12-03T21:53:54.408Z,2.00
2022-12-03T21:56:21.624Z,1.90
2022-12-03T21:58:48.698Z,1.90
2022-12-03T22:01:26.058Z,1.90
2022-12-03T22:03:53.404Z,1.90
2022-12-03T22:06:21.434Z,1.90
2022-12-03T22:08:49.595Z,2.00
2022-12-03T22:11:19.916Z,2.00
2022-12-03T22:13:49.747Z,2.00
2022-12-03T22:16:20.235Z,2.00
2022-12-03T22:18:48.900Z,2.00
2022-12-03T22:21:20.282Z,2.00
2022-12-03T22:23:48.817Z,2.00
2022-12-03T22:26:18.651Z,2.00
2022-12-03T22:28:48.858Z,2.00
2022-12-03T22:31:21.791Z,2.00
2022-12-03T22:33:49.887Z,2.00
2022-12-03T22:36:21.888Z,2.00
2022-12-03T22:38:54.554Z,2.00
2022-12-03T22:41:22.264Z,2.00
2022-12-03T22:43:50.506Z,2.10
2022-12-03T22:46:17.874Z,2.00
2022-12-03T22:48:46.836Z,2.00
2022-12-03T22:51:22.236Z,2.00
2022-12-03T22:53:53.770Z,2.00
2022-12-03T22:56:22.358Z,2.00
2022-12-03T22:58:49.930Z,2.00
2022-12-03T23:01:38.101Z,2.10
2022-12-03T23:04:05.857Z,2.00
2022-12-03T23:06:35.091Z,2.10
2022-12-03T23:09:03.215Z,2.00
2022-12-03T23:11:30.239Z,2.00
2022-12-03T23:13:58.974Z,2.00
2022-12-03T23:16:29.548Z,2.00
2022-12-03T23:18:59.040Z,2.10
2022-12-03T23:21:30.269Z,2.10
2022-12-03T23:23:58.666Z,2.10
2022-12-03T23:26:25.634Z,2.00
2022-12-03T23:28:58.590Z,2.00
2022-12-03T23:31:28.448Z,2.00
2022-12-03T23:33:56.264Z,2.00
2022-12-03T23:36:24.716Z,2.00
2022-12-03T23:38:51.790Z,2.00
2022-12-03T23:41:20.739Z,2.00
2022-12-03T23:43:47.950Z,2.00
2022-12-03T23:46:23.216Z,2.00
2022-12-03T23:48:51.228Z,2.00
2022-12-03T23:51:20.901Z,2.00
2022-12-03T23:53:48.367Z,2.00
2022-12-03T23:56:24.040Z,2.10
2022-12-03T23:58:51.570Z,2.20
